Aviation Digital Data Service (ADDS)

Output produced by TAFs form (1439 UTC 14 February 2016)
found at http://www.aviationweather.gov/adds/tafs/
 
KIAD 141438Z 1415/1518 31006KT P6SM FEW250 
     FM142000 01004KT P6SM SCT200 
     FM142300 10004KT P6SM BKN150 
     FM150600 16007KT 3SM -SN OVC035